sensor_id;sensor_type;location;lat;lon;timestamp;temperature;humidity
53653;DHT22;39553;52.954;5.932;2023-05-29T00:00:57;10.10;76.40
53653;DHT22;39553;52.954;5.932;2023-05-29T00:03:23;10.10;76.60
53653;DHT22;39553;52.954;5.932;2023-05-29T00:05:48;10.10;76.70
53653;DHT22;39553;52.954;5.932;2023-05-29T00:08:14;10.10;76.90
53653;DHT22;39553;52.954;5.932;2023-05-29T00:10:41;10.00;77.10
53653;DHT22;39553;52.954;5.932;2023-05-29T00:13:06;10.00;77.20
53653;DHT22;39553;52.954;5.932;2023-05-29T00:15:32;10.00;77.40
53653;DHT22;39553;52.954;5.932;2023-05-29T00:17:58;10.00;77.70
53653;DHT22;39553;52.954;5.932;2023-05-29T00:20:24;9.90;77.70
53653;DHT22;39553;52.954;5.932;2023-05-29T00:22:50;9.90;78.10
53653;DHT22;39553;52.954;5.932;2023-05-29T00:25:16;9.90;78.20
53653;DHT22;39553;52.954;5.932;2023-05-29T00:27:42;9.90;78.50
53653;DHT22;39553;52.954;5.932;2023-05-29T00:30:08;9.80;78.70
53653;DHT22;39553;52.954;5.932;2023-05-29T00:32:34;9.80;78.80
53653;DHT22;39553;52.954;5.932;2023-05-29T00:35:00;9.80;79.10
53653;DHT22;39553;52.954;5.932;2023-05-29T00:37:25;9.80;79.20
53653;DHT22;39553;52.954;5.932;2023-05-29T00:39:51;9.70;79.40
53653;DHT22;39553;52.954;5.932;2023-05-29T00:42:17;9.70;79.80
53653;DHT22;39553;52.954;5.932;2023-05-29T00:44:43;9.70;79.90
53653;DHT22;39553;52.954;5.932;2023-05-29T00:47:09;9.70;80.20
53653;DHT22;39553;52.954;5.932;2023-05-29T00:49:36;9.70;80.70
53653;DHT22;39553;52.954;5.932;2023-05-29T00:52:04;9.70;80.60
53653;DHT22;39553;52.954;5.932;2023-05-29T00:54:32;10.30;81.10
53653;DHT22;39553;52.954;5.932;2023-05-29T00:56:59;9.60;80.70
53653;DHT22;39553;52.954;5.932;2023-05-29T00:59:29;9.60;80.90
53653;DHT22;39553;52.954;5.932;2023-05-29T01:01:55;9.60;81.90
53653;DHT22;39553;52.954;5.932;2023-05-29T01:04:23;9.50;81.80
53653;DHT22;39553;52.954;5.932;2023-05-29T01:06:51;10.00;82.00
53653;DHT22;39553;52.954;5.932;2023-05-29T01:09:17;9.60;82.10
53653;DHT22;39553;52.954;5.932;2023-05-29T01:12:01;9.40;82.20
53653;DHT22;39553;52.954;5.932;2023-05-29T01:14:52;9.40;82.60
53653;DHT22;39553;52.954;5.932;2023-05-29T01:23:51;9.30;83.30
53653;DHT22;39553;52.954;5.932;2023-05-29T01:28:57;9.30;83.60
53653;DHT22;39553;52.954;5.932;2023-05-29T01:31:26;9.20;83.70
53653;DHT22;39553;52.954;5.932;2023-05-29T01:33:57;9.20;84.00
53653;DHT22;39553;52.954;5.932;2023-05-29T01:36:24;9.20;84.50
53653;DHT22;39553;52.954;5.932;2023-05-29T01:38:53;9.20;84.50
53653;DHT22;39553;52.954;5.932;2023-05-29T01:41:21;9.20;84.80
53653;DHT22;39553;52.954;5.932;2023-05-29T01:43:48;9.20;84.90
53653;DHT22;39553;52.954;5.932;2023-05-29T01:46:15;9.10;85.00
53653;DHT22;39553;52.954;5.932;2023-05-29T01:48:42;9.10;85.30
53653;DHT22;39553;52.954;5.932;2023-05-29T01:51:09;9.10;85.50
53653;DHT22;39553;52.954;5.932;2023-05-29T01:53:37;9.10;85.80
53653;DHT22;39553;52.954;5.932;2023-05-29T01:56:04;9.10;85.90
53653;DHT22;39553;52.954;5.932;2023-05-29T01:58:31;9.10;86.20
53653;DHT22;39553;52.954;5.932;2023-05-29T02:00:58;9.10;86.30
53653;DHT22;39553;52.954;5.932;2023-05-29T02:03:24;9.10;86.60
53653;DHT22;39553;52.954;5.932;2023-05-29T02:05:50;9.10;86.80
53653;DHT22;39553;52.954;5.932;2023-05-29T02:08:16;9.10;87.00
53653;DHT22;39553;52.954;5.932;2023-05-29T02:10:41;9.10;87.10
53653;DHT22;39553;52.954;5.932;2023-05-29T02:13:07;9.90;87.60
53653;DHT22;39553;52.954;5.932;2023-05-29T02:15:33;9.10;87.50
53653;DHT22;39553;52.954;5.932;2023-05-29T02:17:59;9.10;87.50
53653;DHT22;39553;52.954;5.932;2023-05-29T02:20:26;9.10;87.70
53653;DHT22;39553;52.954;5.932;2023-05-29T02:22:53;9.10;87.80
53653;DHT22;39553;52.954;5.932;2023-05-29T02:25:19;9.00;87.70
53653;DHT22;39553;52.954;5.932;2023-05-29T02:27:44;9.00;87.80
53653;DHT22;39553;52.954;5.932;2023-05-29T02:30:11;9.00;88.00
53653;DHT22;39553;52.954;5.932;2023-05-29T02:32:37;9.00;88.10
53653;DHT22;39553;52.954;5.932;2023-05-29T02:35:03;8.90;88.20
53653;DHT22;39553;52.954;5.932;2023-05-29T02:37:29;9.60;88.80
53653;DHT22;39553;52.954;5.932;2023-05-29T02:39:54;8.90;88.60
53653;DHT22;39553;52.954;5.932;2023-05-29T02:42:20;8.90;88.60
53653;DHT22;39553;52.954;5.932;2023-05-29T02:44:46;8.90;88.80
53653;DHT22;39553;52.954;5.932;2023-05-29T02:47:12;8.80;88.80
53653;DHT22;39553;52.954;5.932;2023-05-29T02:49:38;8.80;88.90
53653;DHT22;39553;52.954;5.932;2023-05-29T02:52:04;8.80;89.00
53653;DHT22;39553;52.954;5.932;2023-05-29T02:54:30;8.80;89.10
53653;DHT22;39553;52.954;5.932;2023-05-29T02:56:55;8.80;89.10
53653;DHT22;39553;52.954;5.932;2023-05-29T02:59:21;8.80;89.40
53653;DHT22;39553;52.954;5.932;2023-05-29T03:01:47;8.70;89.40
53653;DHT22;39553;52.954;5.932;2023-05-29T03:04:14;8.70;89.50
53653;DHT22;39553;52.954;5.932;2023-05-29T03:06:40;8.70;89.70
53653;DHT22;39553;52.954;5.932;2023-05-29T03:09:06;8.70;89.80
53653;DHT22;39553;52.954;5.932;2023-05-29T03:11:32;8.70;89.70
53653;DHT22;39553;52.954;5.932;2023-05-29T03:13:58;8.70;90.00
53653;DHT22;39553;52.954;5.932;2023-05-29T03:16:24;8.70;90.00
53653;DHT22;39553;52.954;5.932;2023-05-29T03:18:50;8.70;90.00
53653;DHT22;39553;52.954;5.932;2023-05-29T03:21:17;8.70;90.00
53653;DHT22;39553;52.954;5.932;2023-05-29T03:23:43;8.80;90.00
53653;DHT22;39553;52.954;5.932;2023-05-29T03:26:08;8.80;90.10
53653;DHT22;39553;52.954;5.932;2023-05-29T03:28:34;8.70;90.10
53653;DHT22;39553;52.954;5.932;2023-05-29T03:31:01;8.60;90.10
53653;DHT22;39553;52.954;5.932;2023-05-29T03:33:27;8.60;90.20
53653;DHT22;39553;52.954;5.932;2023-05-29T03:35:52;8.60;90.30
53653;DHT22;39553;52.954;5.932;2023-05-29T03:38:18;8.60;90.30
53653;DHT22;39553;52.954;5.932;2023-05-29T03:40:44;8.60;90.40
53653;DHT22;39553;52.954;5.932;2023-05-29T03:43:10;8.60;90.40
53653;DHT22;39553;52.954;5.932;2023-05-29T03:45:39;8.60;90.50
53653;DHT22;39553;52.954;5.932;2023-05-29T03:48:04;8.60;90.60
53653;DHT22;39553;52.954;5.932;2023-05-29T03:50:30;8.60;90.60
53653;DHT22;39553;52.954;5.932;2023-05-29T03:52:56;8.60;90.70
53653;DHT22;39553;52.954;5.932;2023-05-29T03:55:22;8.60;90.80
53653;DHT22;39553;52.954;5.932;2023-05-29T03:57:47;8.60;90.80
53653;DHT22;39553;52.954;5.932;2023-05-29T04:00:13;8.70;90.80
53653;DHT22;39553;52.954;5.932;2023-05-29T04:02:40;8.70;90.80
53653;DHT22;39553;52.954;5.932;2023-05-29T04:05:07;8.70;90.90
53653;DHT22;39553;52.954;5.932;2023-05-29T04:07:35;8.70;90.90
53653;DHT22;39553;52.954;5.932;2023-05-29T04:10:05;8.80;91.00
53653;DHT22;39553;52.954;5.932;2023-05-29T04:12:32;8.80;91.00
53653;DHT22;39553;52.954;5.932;2023-05-29T04:14:58;8.80;91.00
53653;DHT22;39553;52.954;5.932;2023-05-29T04:17:24;9.00;91.10
53653;DHT22;39553;52.954;5.932;2023-05-29T04:19:50;8.90;91.00
53653;DHT22;39553;52.954;5.932;2023-05-29T04:22:16;8.90;90.90
53653;DHT22;39553;52.954;5.932;2023-05-29T04:24:42;9.00;91.00
53653;DHT22;39553;52.954;5.932;2023-05-29T04:27:10;9.10;90.90
53653;DHT22;39553;52.954;5.932;2023-05-29T04:29:42;9.10;90.80
53653;DHT22;39553;52.954;5.932;2023-05-29T04:32:09;9.20;90.80
53653;DHT22;39553;52.954;5.932;2023-05-29T04:34:39;9.30;90.80
53653;DHT22;39553;52.954;5.932;2023-05-29T04:37:06;9.40;90.90
53653;DHT22;39553;52.954;5.932;2023-05-29T04:39:32;9.40;90.70
53653;DHT22;39553;52.954;5.932;2023-05-29T04:41:58;9.50;90.80
53653;DHT22;39553;52.954;5.932;2023-05-29T04:44:26;9.60;90.80
53653;DHT22;39553;52.954;5.932;2023-05-29T04:46:52;9.70;90.70
53653;DHT22;39553;52.954;5.932;2023-05-29T04:49:19;9.70;90.70
53653;DHT22;39553;52.954;5.932;2023-05-29T04:51:46;9.80;90.80
53653;DHT22;39553;52.954;5.932;2023-05-29T04:54:12;9.90;90.80
53653;DHT22;39553;52.954;5.932;2023-05-29T04:56:38;10.10;90.90
53653;DHT22;39553;52.954;5.932;2023-05-29T04:59:07;10.20;90.80
53653;DHT22;39553;52.954;5.932;2023-05-29T05:01:33;10.30;90.80
53653;DHT22;39553;52.954;5.932;2023-05-29T05:04:00;10.40;90.60
53653;DHT22;39553;52.954;5.932;2023-05-29T05:06:26;10.40;90.30
53653;DHT22;39553;52.954;5.932;2023-05-29T05:08:53;10.60;90.30
53653;DHT22;39553;52.954;5.932;2023-05-29T05:11:18;10.70;90.10
53653;DHT22;39553;52.954;5.932;2023-05-29T05:13:44;10.70;89.40
53653;DHT22;39553;52.954;5.932;2023-05-29T05:16:10;10.80;88.00
53653;DHT22;39553;52.954;5.932;2023-05-29T05:18:36;10.90;88.30
53653;DHT22;39553;52.954;5.932;2023-05-29T05:21:02;10.90;88.40
53653;DHT22;39553;52.954;5.932;2023-05-29T05:23:32;11.00;88.40
53653;DHT22;39553;52.954;5.932;2023-05-29T05:25:57;11.00;87.90
53653;DHT22;39553;52.954;5.932;2023-05-29T05:28:23;11.10;87.60
53653;DHT22;39553;52.954;5.932;2023-05-29T05:30:49;11.10;87.40
53653;DHT22;39553;52.954;5.932;2023-05-29T05:33:15;11.10;87.50
53653;DHT22;39553;52.954;5.932;2023-05-29T05:35:40;11.30;87.90
53653;DHT22;39553;52.954;5.932;2023-05-29T05:38:08;11.30;88.10
53653;DHT22;39553;52.954;5.932;2023-05-29T05:40:33;11.50;88.10
53653;DHT22;39553;52.954;5.932;2023-05-29T05:42:59;11.60;87.30
53653;DHT22;39553;52.954;5.932;2023-05-29T05:45:25;11.60;86.20
53653;DHT22;39553;52.954;5.932;2023-05-29T05:47:51;11.70;86.10
53653;DHT22;39553;52.954;5.932;2023-05-29T05:50:17;11.80;85.30
53653;DHT22;39553;52.954;5.932;2023-05-29T05:52:43;11.90;84.50
53653;DHT22;39553;52.954;5.932;2023-05-29T05:55:09;11.90;83.20
53653;DHT22;39553;52.954;5.932;2023-05-29T05:57:35;12.00;81.80
53653;DHT22;39553;52.954;5.932;2023-05-29T06:00:03;12.00;81.70
53653;DHT22;39553;52.954;5.932;2023-05-29T06:02:39;11.80;81.30
53653;DHT22;39553;52.954;5.932;2023-05-29T06:05:08;12.10;80.70
53653;DHT22;39553;52.954;5.932;2023-05-29T06:07:35;12.20;79.70
53653;DHT22;39553;52.954;5.932;2023-05-29T06:10:01;12.20;78.60
53653;DHT22;39553;52.954;5.932;2023-05-29T06:12:27;12.20;76.70
53653;DHT22;39553;52.954;5.932;2023-05-29T06:14:53;12.20;76.70
53653;DHT22;39553;52.954;5.932;2023-05-29T06:17:18;12.30;75.70
53653;DHT22;39553;52.954;5.932;2023-05-29T06:19:44;12.30;74.70
53653;DHT22;39553;52.954;5.932;2023-05-29T06:22:10;12.30;73.50
53653;DHT22;39553;52.954;5.932;2023-05-29T06:24:36;12.30;73.80
53653;DHT22;39553;52.954;5.932;2023-05-29T06:27:02;12.40;72.90
53653;DHT22;39553;52.954;5.932;2023-05-29T06:29:28;12.40;72.50
53653;DHT22;39553;52.954;5.932;2023-05-29T06:31:54;12.40;71.80
53653;DHT22;39553;52.954;5.932;2023-05-29T06:34:20;12.50;71.10
53653;DHT22;39553;52.954;5.932;2023-05-29T06:36:45;12.50;71.00
53653;DHT22;39553;52.954;5.932;2023-05-29T06:39:14;12.60;71.20
53653;DHT22;39553;52.954;5.932;2023-05-29T06:41:40;12.60;70.50
53653;DHT22;39553;52.954;5.932;2023-05-29T06:44:06;12.60;70.20
53653;DHT22;39553;52.954;5.932;2023-05-29T06:46:32;12.60;70.30
53653;DHT22;39553;52.954;5.932;2023-05-29T06:48:58;12.70;70.10
53653;DHT22;39553;52.954;5.932;2023-05-29T06:51:24;12.70;70.10
53653;DHT22;39553;52.954;5.932;2023-05-29T06:53:50;12.70;69.60
53653;DHT22;39553;52.954;5.932;2023-05-29T06:56:16;12.80;68.90
53653;DHT22;39553;52.954;5.932;2023-05-29T06:58:41;12.70;68.60
53653;DHT22;39553;52.954;5.932;2023-05-29T07:01:07;12.80;68.50
53653;DHT22;39553;52.954;5.932;2023-05-29T07:03:33;12.80;68.30
53653;DHT22;39553;52.954;5.932;2023-05-29T07:05:59;12.90;68.20
53653;DHT22;39553;52.954;5.932;2023-05-29T07:08:25;12.90;67.70
53653;DHT22;39553;52.954;5.932;2023-05-29T07:10:51;12.90;67.60
53653;DHT22;39553;52.954;5.932;2023-05-29T07:13:17;13.00;67.70
53653;DHT22;39553;52.954;5.932;2023-05-29T07:15:44;13.10;67.30
53653;DHT22;39553;52.954;5.932;2023-05-29T07:18:10;13.30;67.20
53653;DHT22;39553;52.954;5.932;2023-05-29T07:20:36;13.40;66.80
53653;DHT22;39553;52.954;5.932;2023-05-29T07:23:03;13.40;66.10
53653;DHT22;39553;52.954;5.932;2023-05-29T07:25:30;13.50;65.80
53653;DHT22;39553;52.954;5.932;2023-05-29T07:27:56;13.50;65.70
53653;DHT22;39553;52.954;5.932;2023-05-29T07:30:22;13.60;65.20
53653;DHT22;39553;52.954;5.932;2023-05-29T07:32:47;13.60;64.90
53653;DHT22;39553;52.954;5.932;2023-05-29T07:35:13;13.60;64.10
53653;DHT22;39553;52.954;5.932;2023-05-29T07:37:39;13.60;64.50
53653;DHT22;39553;52.954;5.932;2023-05-29T07:40:05;13.70;64.90
53653;DHT22;39553;52.954;5.932;2023-05-29T07:42:32;13.90;65.10
53653;DHT22;39553;52.954;5.932;2023-05-29T07:44:58;14.20;64.70
53653;DHT22;39553;52.954;5.932;2023-05-29T07:47:24;14.20;64.40
53653;DHT22;39553;52.954;5.932;2023-05-29T07:49:50;14.30;63.90
53653;DHT22;39553;52.954;5.932;2023-05-29T07:52:17;14.30;62.80
53653;DHT22;39553;52.954;5.932;2023-05-29T07:54:43;14.30;62.70
53653;DHT22;39553;52.954;5.932;2023-05-29T07:57:09;14.30;62.60
53653;DHT22;39553;52.954;5.932;2023-05-29T07:59:40;14.50;62.60
53653;DHT22;39553;52.954;5.932;2023-05-29T08:02:07;14.60;61.70
53653;DHT22;39553;52.954;5.932;2023-05-29T08:04:33;14.80;62.00
53653;DHT22;39553;52.954;5.932;2023-05-29T08:07:02;15.00;62.00
53653;DHT22;39553;52.954;5.932;2023-05-29T08:09:31;15.20;60.30
53653;DHT22;39553;52.954;5.932;2023-05-29T08:11:57;15.50;61.20
53653;DHT22;39553;52.954;5.932;2023-05-29T08:14:22;15.50;60.60
53653;DHT22;39553;52.954;5.932;2023-05-29T08:16:48;15.60;60.20
53653;DHT22;39553;52.954;5.932;2023-05-29T08:19:14;15.70;60.30
53653;DHT22;39553;52.954;5.932;2023-05-29T08:21:40;15.90;59.90
53653;DHT22;39553;52.954;5.932;2023-05-29T08:24:06;15.90;57.20
53653;DHT22;39553;52.954;5.932;2023-05-29T08:26:32;15.70;55.70
53653;DHT22;39553;52.954;5.932;2023-05-29T08:28:58;15.60;56.00
53653;DHT22;39553;52.954;5.932;2023-05-29T08:31:24;15.60;56.60
53653;DHT22;39553;52.954;5.932;2023-05-29T08:33:55;15.70;57.60
53653;DHT22;39553;52.954;5.932;2023-05-29T08:36:21;15.90;57.10
53653;DHT22;39553;52.954;5.932;2023-05-29T08:38:48;16.00;56.90
53653;DHT22;39553;52.954;5.932;2023-05-29T08:41:21;16.10;55.90
53653;DHT22;39553;52.954;5.932;2023-05-29T08:43:49;16.20;55.20
53653;DHT22;39553;52.954;5.932;2023-05-29T08:46:18;16.30;55.20
53653;DHT22;39553;52.954;5.932;2023-05-29T08:48:48;16.40;54.90
53653;DHT22;39553;52.954;5.932;2023-05-29T08:51:19;16.50;53.90
53653;DHT22;39553;52.954;5.932;2023-05-29T08:53:46;16.50;54.00
53653;DHT22;39553;52.954;5.932;2023-05-29T08:56:12;16.50;53.30
53653;DHT22;39553;52.954;5.932;2023-05-29T08:58:38;16.50;52.90
53653;DHT22;39553;52.954;5.932;2023-05-29T09:01:04;16.40;52.90
53653;DHT22;39553;52.954;5.932;2023-05-29T09:03:29;16.50;52.90
53653;DHT22;39553;52.954;5.932;2023-05-29T09:05:59;16.50;52.80
53653;DHT22;39553;52.954;5.932;2023-05-29T09:08:25;16.50;52.70
53653;DHT22;39553;52.954;5.932;2023-05-29T09:10:52;16.60;52.90
53653;DHT22;39553;52.954;5.932;2023-05-29T09:13:18;16.70;52.70
53653;DHT22;39553;52.954;5.932;2023-05-29T09:15:44;16.80;52.40
53653;DHT22;39553;52.954;5.932;2023-05-29T09:18:10;16.70;51.60
53653;DHT22;39553;52.954;5.932;2023-05-29T09:20:38;16.70;51.50
53653;DHT22;39553;52.954;5.932;2023-05-29T09:23:07;16.70;51.20
53653;DHT22;39553;52.954;5.932;2023-05-29T09:25:35;16.80;51.40
53653;DHT22;39553;52.954;5.932;2023-05-29T09:28:06;16.80;51.40
53653;DHT22;39553;52.954;5.932;2023-05-29T09:30:38;16.80;50.80
53653;DHT22;39553;52.954;5.932;2023-05-29T09:33:05;16.70;50.70
53653;DHT22;39553;52.954;5.932;2023-05-29T09:35:39;16.70;50.60
53653;DHT22;39553;52.954;5.932;2023-05-29T09:38:06;16.50;50.40
53653;DHT22;39553;52.954;5.932;2023-05-29T09:40:34;16.50;51.10
53653;DHT22;39553;52.954;5.932;2023-05-29T09:43:11;16.40;51.10
53653;DHT22;39553;52.954;5.932;2023-05-29T09:45:41;16.40;50.60
53653;DHT22;39553;52.954;5.932;2023-05-29T09:48:18;16.30;50.90
53653;DHT22;39553;52.954;5.932;2023-05-29T09:50:45;16.30;50.10
53653;DHT22;39553;52.954;5.932;2023-05-29T09:53:26;16.30;50.70
53653;DHT22;39553;52.954;5.932;2023-05-29T09:55:57;16.30;50.60
53653;DHT22;39553;52.954;5.932;2023-05-29T09:58:26;16.40;51.00
53653;DHT22;39553;52.954;5.932;2023-05-29T10:00:52;16.50;51.00
53653;DHT22;39553;52.954;5.932;2023-05-29T10:03:19;16.60;50.80
53653;DHT22;39553;52.954;5.932;2023-05-29T10:05:50;16.80;50.50
53653;DHT22;39553;52.954;5.932;2023-05-29T10:08:19;16.80;49.20
53653;DHT22;39553;52.954;5.932;2023-05-29T10:10:56;16.90;48.90
53653;DHT22;39553;52.954;5.932;2023-05-29T10:13:24;17.00;48.50
53653;DHT22;39553;52.954;5.932;2023-05-29T10:15:53;17.10;49.60
53653;DHT22;39553;52.954;5.932;2023-05-29T10:18:26;17.40;49.40
53653;DHT22;39553;52.954;5.932;2023-05-29T10:20:56;17.60;49.50
53653;DHT22;39553;52.954;5.932;2023-05-29T10:23:25;17.90;48.90
53653;DHT22;39553;52.954;5.932;2023-05-29T10:25:54;18.00;48.10
53653;DHT22;39553;52.954;5.932;2023-05-29T10:28:22;18.10;47.70
53653;DHT22;39553;52.954;5.932;2023-05-29T10:30:53;18.30;46.60
53653;DHT22;39553;52.954;5.932;2023-05-29T10:36:16;18.50;46.40
53653;DHT22;39553;52.954;5.932;2023-05-29T10:38:46;18.70;45.80
53653;DHT22;39553;52.954;5.932;2023-05-29T10:43:58;19.10;44.90
53653;DHT22;39553;52.954;5.932;2023-05-29T10:49:21;19.50;44.60
53653;DHT22;39553;52.954;5.932;2023-05-29T10:51:48;19.70;44.20
53653;DHT22;39553;52.954;5.932;2023-05-29T10:54:14;19.70;44.00
53653;DHT22;39553;52.954;5.932;2023-05-29T10:56:40;19.80;42.70
53653;DHT22;39553;52.954;5.932;2023-05-29T10:59:08;19.80;40.70
53653;DHT22;39553;52.954;5.932;2023-05-29T11:01:34;19.90;42.30
53653;DHT22;39553;52.954;5.932;2023-05-29T11:06:48;20.50;41.60
53653;DHT22;39553;52.954;5.932;2023-05-29T11:12:16;21.20;39.60
53653;DHT22;39553;52.954;5.932;2023-05-29T11:15:06;21.40;38.20
53653;DHT22;39553;52.954;5.932;2023-05-29T11:20:17;21.50;36.90
53653;DHT22;39553;52.954;5.932;2023-05-29T11:25:15;21.90;36.00
53653;DHT22;39553;52.954;5.932;2023-05-29T11:27:43;22.30;36.40
53653;DHT22;39553;52.954;5.932;2023-05-29T11:30:10;22.70;35.00
53653;DHT22;39553;52.954;5.932;2023-05-29T11:32:37;23.00;33.90
53653;DHT22;39553;52.954;5.932;2023-05-29T11:35:08;23.10;32.70
53653;DHT22;39553;52.954;5.932;2023-05-29T11:37:42;23.40;31.60
53653;DHT22;39553;52.954;5.932;2023-05-29T11:40:09;23.60;30.00
53653;DHT22;39553;52.954;5.932;2023-05-29T11:42:41;23.90;30.60
53653;DHT22;39553;52.954;5.932;2023-05-29T11:47:56;24.10;29.20
53653;DHT22;39553;52.954;5.932;2023-05-29T11:50:27;24.30;28.90
53653;DHT22;39553;52.954;5.932;2023-05-29T11:52:53;24.10;28.10
53653;DHT22;39553;52.954;5.932;2023-05-29T11:55:20;24.10;28.10
53653;DHT22;39553;52.954;5.932;2023-05-29T11:57:47;24.20;28.10
53653;DHT22;39553;52.954;5.932;2023-05-29T12:00:18;24.30;26.30
53653;DHT22;39553;52.954;5.932;2023-05-29T12:02:45;24.30;26.20
53653;DHT22;39553;52.954;5.932;2023-05-29T12:05:16;24.70;26.60
53653;DHT22;39553;52.954;5.932;2023-05-29T12:07:56;25.00;26.10
53653;DHT22;39553;52.954;5.932;2023-05-29T12:10:23;25.50;25.40
53653;DHT22;39553;52.954;5.932;2023-05-29T12:12:59;25.60;24.80
53653;DHT22;39553;52.954;5.932;2023-05-29T12:15:27;26.00;25.20
53653;DHT22;39553;52.954;5.932;2023-05-29T12:17:54;26.50;25.00
53653;DHT22;39553;52.954;5.932;2023-05-29T12:20:24;26.80;24.20
53653;DHT22;39553;52.954;5.932;2023-05-29T12:22:52;26.90;22.90
53653;DHT22;39553;52.954;5.932;2023-05-29T12:25:20;26.50;22.30
53653;DHT22;39553;52.954;5.932;2023-05-29T12:27:47;26.10;23.00
53653;DHT22;39553;52.954;5.932;2023-05-29T12:30:14;25.70;23.10
53653;DHT22;39553;52.954;5.932;2023-05-29T12:32:46;25.20;23.40
53653;DHT22;39553;52.954;5.932;2023-05-29T12:35:16;24.60;24.10
53653;DHT22;39553;52.954;5.932;2023-05-29T12:37:55;23.90;24.40
53653;DHT22;39553;52.954;5.932;2023-05-29T12:40:26;23.30;24.60
53653;DHT22;39553;52.954;5.932;2023-05-29T12:43:06;22.80;25.50
53653;DHT22;39553;52.954;5.932;2023-05-29T12:45:33;22.40;25.50
53653;DHT22;39553;52.954;5.932;2023-05-29T12:48:04;21.90;26.00
53653;DHT22;39553;52.954;5.932;2023-05-29T12:50:31;21.60;26.90
53653;DHT22;39553;52.954;5.932;2023-05-29T12:53:03;21.30;27.50
53653;DHT22;39553;52.954;5.932;2023-05-29T12:55:31;21.30;27.90
53653;DHT22;39553;52.954;5.932;2023-05-29T12:57:59;21.00;27.80
53653;DHT22;39553;52.954;5.932;2023-05-29T13:00:29;20.60;28.00
53653;DHT22;39553;52.954;5.932;2023-05-29T13:02:59;20.20;28.80
53653;DHT22;39553;52.954;5.932;2023-05-29T13:05:25;19.90;29.20
53653;DHT22;39553;52.954;5.932;2023-05-29T13:07:51;19.70;29.40
53653;DHT22;39553;52.954;5.932;2023-05-29T13:10:21;19.40;29.70
53653;DHT22;39553;52.954;5.932;2023-05-29T13:12:48;19.20;30.70
53653;DHT22;39553;52.954;5.932;2023-05-29T13:15:14;19.00;31.10
53653;DHT22;39553;52.954;5.932;2023-05-29T13:17:40;18.60;31.30
53653;DHT22;39553;52.954;5.932;2023-05-29T13:20:11;18.80;32.00
53653;DHT22;39553;52.954;5.932;2023-05-29T13:22:42;18.70;32.10
53653;DHT22;39553;52.954;5.932;2023-05-29T13:25:09;18.60;32.00
53653;DHT22;39553;52.954;5.932;2023-05-29T13:27:38;18.50;32.00
53653;DHT22;39553;52.954;5.932;2023-05-29T13:30:05;18.50;32.60
53653;DHT22;39553;52.954;5.932;2023-05-29T13:32:32;18.50;32.80
53653;DHT22;39553;52.954;5.932;2023-05-29T13:34:58;18.40;32.60
53653;DHT22;39553;52.954;5.932;2023-05-29T13:37:24;18.40;32.60
53653;DHT22;39553;52.954;5.932;2023-05-29T13:39:50;18.40;32.10
53653;DHT22;39553;52.954;5.932;2023-05-29T13:42:18;18.40;31.80
53653;DHT22;39553;52.954;5.932;2023-05-29T13:44:44;18.20;31.50
53653;DHT22;39553;52.954;5.932;2023-05-29T13:47:10;18.20;32.00
53653;DHT22;39553;52.954;5.932;2023-05-29T13:49:36;18.00;32.40
53653;DHT22;39553;52.954;5.932;2023-05-29T13:52:03;18.00;33.70
53653;DHT22;39553;52.954;5.932;2023-05-29T13:54:29;18.00;32.30
53653;DHT22;39553;52.954;5.932;2023-05-29T13:56:57;17.90;32.60
53653;DHT22;39553;52.954;5.932;2023-05-29T13:59:24;17.90;33.40
53653;DHT22;39553;52.954;5.932;2023-05-29T14:01:50;17.90;33.60
53653;DHT22;39553;52.954;5.932;2023-05-29T14:04:16;17.90;33.90
53653;DHT22;39553;52.954;5.932;2023-05-29T14:06:42;17.90;33.90
53653;DHT22;39553;52.954;5.932;2023-05-29T14:09:08;17.90;34.00
53653;DHT22;39553;52.954;5.932;2023-05-29T14:11:39;17.80;34.30
53653;DHT22;39553;52.954;5.932;2023-05-29T14:14:05;17.70;34.30
53653;DHT22;39553;52.954;5.932;2023-05-29T14:16:32;17.70;33.40
53653;DHT22;39553;52.954;5.932;2023-05-29T14:18:59;17.60;33.80
53653;DHT22;39553;52.954;5.932;2023-05-29T14:21:25;17.70;34.30
53653;DHT22;39553;52.954;5.932;2023-05-29T14:23:51;17.60;34.70
53653;DHT22;39553;52.954;5.932;2023-05-29T14:26:20;17.50;35.00
53653;DHT22;39553;52.954;5.932;2023-05-29T14:28:45;17.50;34.20
53653;DHT22;39553;52.954;5.932;2023-05-29T14:31:11;17.40;34.30
53653;DHT22;39553;52.954;5.932;2023-05-29T14:33:37;17.40;34.10
53653;DHT22;39553;52.954;5.932;2023-05-29T14:36:03;17.30;33.90
53653;DHT22;39553;52.954;5.932;2023-05-29T14:38:29;17.30;34.20
53653;DHT22;39553;52.954;5.932;2023-05-29T14:40:58;17.30;34.90
53653;DHT22;39553;52.954;5.932;2023-05-29T14:43:23;17.30;35.00
53653;DHT22;39553;52.954;5.932;2023-05-29T14:45:49;17.30;34.70
53653;DHT22;39553;52.954;5.932;2023-05-29T14:48:15;17.20;34.80
53653;DHT22;39553;52.954;5.932;2023-05-29T14:50:42;17.10;34.50
53653;DHT22;39553;52.954;5.932;2023-05-29T14:53:08;17.10;34.80
53653;DHT22;39553;52.954;5.932;2023-05-29T14:55:33;17.10;34.80
53653;DHT22;39553;52.954;5.932;2023-05-29T14:58:06;17.20;35.10
53653;DHT22;39553;52.954;5.932;2023-05-29T15:00:32;17.20;35.10
53653;DHT22;39553;52.954;5.932;2023-05-29T15:02:57;17.20;35.10
53653;DHT22;39553;52.954;5.932;2023-05-29T15:05:28;17.10;34.70
53653;DHT22;39553;52.954;5.932;2023-05-29T15:07:57;17.10;34.50
53653;DHT22;39553;52.954;5.932;2023-05-29T15:10:26;17.10;34.20
53653;DHT22;39553;52.954;5.932;2023-05-29T15:12:53;17.10;34.50
53653;DHT22;39553;52.954;5.932;2023-05-29T15:15:28;17.00;34.00
53653;DHT22;39553;52.954;5.932;2023-05-29T15:17:54;16.90;34.00
53653;DHT22;39553;52.954;5.932;2023-05-29T15:20:23;16.80;34.10
53653;DHT22;39553;52.954;5.932;2023-05-29T15:22:50;16.70;33.40
53653;DHT22;39553;52.954;5.932;2023-05-29T15:25:17;16.30;32.30
53653;DHT22;39553;52.954;5.932;2023-05-29T15:27:43;16.70;32.00
53653;DHT22;39553;52.954;5.932;2023-05-29T15:30:13;16.70;32.60
53653;DHT22;39553;52.954;5.932;2023-05-29T15:32:42;16.70;33.00
53653;DHT22;39553;52.954;5.932;2023-05-29T15:35:10;16.60;31.60
53653;DHT22;39553;52.954;5.932;2023-05-29T15:37:37;16.50;31.60
53653;DHT22;39553;52.954;5.932;2023-05-29T15:40:03;16.50;31.90
53653;DHT22;39553;52.954;5.932;2023-05-29T15:42:29;16.50;31.80
53653;DHT22;39553;52.954;5.932;2023-05-29T15:44:55;16.40;31.70
53653;DHT22;39553;52.954;5.932;2023-05-29T15:47:20;16.40;32.30
53653;DHT22;39553;52.954;5.932;2023-05-29T15:49:46;16.40;32.60
53653;DHT22;39553;52.954;5.932;2023-05-29T15:52:13;16.30;31.40
53653;DHT22;39553;52.954;5.932;2023-05-29T15:54:39;16.20;30.80
53653;DHT22;39553;52.954;5.932;2023-05-29T15:57:05;16.20;31.40
53653;DHT22;39553;52.954;5.932;2023-05-29T15:59:32;16.20;31.90
53653;DHT22;39553;52.954;5.932;2023-05-29T16:01:58;16.30;31.50
53653;DHT22;39553;52.954;5.932;2023-05-29T16:04:24;16.30;31.60
53653;DHT22;39553;52.954;5.932;2023-05-29T16:06:50;16.30;31.20